createdAt,value
2022-09-17T00:01:05.286Z,0.70
2022-09-17T00:03:34.446Z,0.55
2022-09-17T00:06:03.751Z,0.65
2022-09-17T00:08:32.496Z,0.50
2022-09-17T00:11:07.549Z,0.63
2022-09-17T00:13:37.349Z,0.55
2022-09-17T00:16:05.899Z,0.60
2022-09-17T00:18:36.841Z,0.60
2022-09-17T00:21:05.801Z,0.70
2022-09-17T00:23:34.208Z,0.70
2022-09-17T00:26:06.625Z,0.70
2022-09-17T00:28:35.029Z,0.50
2022-09-17T00:31:08.326Z,0.68
2022-09-17T00:33:36.800Z,0.50
2022-09-17T00:36:05.952Z,0.60
2022-09-17T00:38:34.486Z,0.52
2022-09-17T00:41:03.237Z,0.50
2022-09-17T00:43:35.914Z,0.60
2022-09-17T00:46:06.605Z,0.68
2022-09-17T00:48:35.132Z,0.63
2022-09-17T00:51:04.038Z,0.50
2022-09-17T00:53:32.464Z,0.60
2022-09-17T00:56:03.996Z,0.60
2022-09-17T00:58:35.804Z,0.60
2022-09-17T01:01:07.979Z,0.70
2022-09-17T01:03:36.488Z,0.50
2022-09-17T01:06:09.065Z,0.57
2022-09-17T01:08:44.824Z,0.60
2022-09-17T01:11:20.032Z,0.60
2022-09-17T01:13:54.149Z,0.60
2022-09-17T01:16:31.646Z,0.50
2022-09-17T01:19:08.898Z,0.60
2022-09-17T01:21:46.489Z,0.60
2022-09-17T01:24:35.661Z,0.60
2022-09-17T01:27:18.927Z,0.60
2022-09-17T01:29:57.528Z,0.77
2022-09-17T01:32:30.212Z,0.80
2022-09-17T01:35:01.425Z,0.68
2022-09-17T01:37:33.445Z,0.73
2022-09-17T01:40:03.852Z,0.60
2022-09-17T01:42:37.796Z,0.77
2022-09-17T01:45:10.374Z,0.70
2022-09-17T01:47:41.506Z,0.85
2022-09-17T01:50:11.502Z,0.65
2022-09-17T01:52:41.837Z,0.60
2022-09-17T01:55:12.157Z,0.75
2022-09-17T01:57:43.413Z,0.60
2022-09-17T02:00:13.869Z,0.63
2022-09-17T02:02:47.916Z,0.70
2022-09-17T02:05:18.628Z,0.70
2022-09-17T02:07:47.761Z,0.93
2022-09-17T02:10:19.185Z,0.80
2022-09-17T02:12:48.919Z,0.93
2022-09-17T02:15:19.109Z,0.63
2022-09-17T02:17:51.065Z,1.00
2022-09-17T02:20:22.918Z,0.70
2022-09-17T02:22:53.436Z,0.80
2022-09-17T02:25:24.141Z,0.90
2022-09-17T02:27:55.581Z,0.82
2022-09-17T02:30:24.003Z,0.90
2022-09-17T02:32:54.000Z,0.70
2022-09-17T02:35:22.729Z,0.77
2022-09-17T02:37:53.157Z,0.77
2022-09-17T02:40:23.420Z,0.90
2022-09-17T02:42:58.732Z,0.88
2022-09-17T02:45:32.425Z,0.90
2022-09-17T02:48:10.341Z,0.75
2022-09-17T02:50:47.169Z,0.70
2022-09-17T02:53:22.256Z,0.73
2022-09-17T02:55:54.643Z,0.73
2022-09-17T02:58:26.476Z,0.57
2022-09-17T03:00:55.770Z,0.60
2022-09-17T03:03:28.107Z,0.68
2022-09-17T03:05:58.190Z,0.63
2022-09-17T03:08:30.403Z,0.80
2022-09-17T03:10:58.824Z,0.70
2022-09-17T03:13:27.284Z,0.60
2022-09-17T03:15:55.714Z,0.70
2022-09-17T03:18:25.917Z,0.80
2022-09-17T03:20:54.388Z,0.60
2022-09-17T03:23:23.020Z,0.70
2022-09-17T03:25:52.096Z,0.80
2022-09-17T03:28:20.489Z,0.60
2022-09-17T03:30:49.096Z,0.63
2022-09-17T03:33:17.538Z,0.70
2022-09-17T03:35:47.617Z,0.88
2022-09-17T03:38:16.153Z,0.70
2022-09-17T03:40:44.570Z,0.80
2022-09-17T03:43:13.009Z,0.73
2022-09-17T03:45:41.393Z,0.65
2022-09-17T03:48:09.808Z,0.70
2022-09-17T03:50:38.222Z,0.60
2022-09-17T03:53:07.992Z,0.60
2022-09-17T03:55:36.384Z,0.80
2022-09-17T03:58:04.914Z,0.60
2022-09-17T04:00:33.437Z,0.50
2022-09-17T04:03:01.939Z,0.70
2022-09-17T04:05:30.468Z,0.60
2022-09-17T04:07:58.840Z,0.70
2022-09-17T04:10:29.306Z,0.70
2022-09-17T04:12:57.718Z,0.60
2022-09-17T04:15:26.129Z,0.63
2022-09-17T04:17:57.757Z,0.60
2022-09-17T04:20:26.708Z,0.70
2022-09-17T04:22:55.264Z,0.60
2022-09-17T04:25:23.669Z,1.27
2022-09-17T04:27:53.660Z,0.50
2022-09-17T04:30:22.086Z,0.70
2022-09-17T04:32:50.546Z,0.60
2022-09-17T04:35:19.002Z,0.75
2022-09-17T04:37:53.718Z,0.65
2022-09-17T04:40:22.667Z,0.68
2022-09-17T04:42:53.887Z,0.70
2022-09-17T04:45:24.040Z,0.70
2022-09-17T04:47:52.441Z,0.60
2022-09-17T04:50:20.896Z,0.63
2022-09-17T04:52:49.354Z,0.40
2022-09-17T04:55:18.060Z,0.60
2022-09-17T04:57:48.364Z,0.60
2022-09-17T05:00:17.718Z,0.57
2022-09-17T05:02:48.372Z,0.57
2022-09-17T05:05:17.264Z,0.63
2022-09-17T05:07:45.727Z,0.55
2022-09-17T05:10:14.845Z,0.70
2022-09-17T05:12:43.272Z,0.47
2022-09-17T05:15:12.021Z,0.63
2022-09-17T05:17:40.476Z,0.47
2022-09-17T05:20:11.209Z,0.50
2022-09-17T05:22:42.617Z,0.70
2022-09-17T05:25:11.234Z,0.60
2022-09-17T05:27:40.593Z,0.60
2022-09-17T05:30:10.032Z,0.57
2022-09-17T05:32:39.042Z,0.60
2022-09-17T05:35:08.223Z,0.52
2022-09-17T05:37:38.044Z,0.50
2022-09-17T05:40:07.757Z,0.70
2022-09-17T05:42:36.209Z,0.68
2022-09-17T05:45:05.500Z,0.60
2022-09-17T05:47:35.291Z,0.60
2022-09-17T05:50:03.741Z,0.70
2022-09-17T05:52:32.469Z,0.60
2022-09-17T05:55:02.221Z,0.50
2022-09-17T05:57:31.079Z,0.60
2022-09-17T05:59:59.539Z,0.50
2022-09-17T06:02:27.993Z,0.60
2022-09-17T06:04:56.429Z,0.60
2022-09-17T06:07:24.820Z,0.60
2022-09-17T06:09:53.217Z,0.50
2022-09-17T06:12:22.974Z,0.70
2022-09-17T06:14:51.387Z,0.60
2022-09-17T06:17:22.200Z,0.60
2022-09-17T06:19:50.852Z,0.40
2022-09-17T06:22:20.522Z,0.50
2022-09-17T06:24:48.899Z,0.60
2022-09-17T06:27:17.308Z,0.57
2022-09-17T06:29:47.438Z,0.70
2022-09-17T06:32:17.085Z,0.73
2022-09-17T06:34:45.544Z,0.60
2022-09-17T06:37:13.967Z,0.50
2022-09-17T06:39:42.389Z,0.60
2022-09-17T06:42:10.926Z,0.50
2022-09-17T06:44:39.361Z,0.55
2022-09-17T06:47:09.182Z,0.80
2022-09-17T06:49:37.588Z,0.52
2022-09-17T06:52:06.001Z,0.60
2022-09-17T06:54:34.589Z,0.50
2022-09-17T06:57:02.992Z,0.50
2022-09-17T06:59:31.406Z,0.55
2022-09-17T07:01:59.866Z,0.60
2022-09-17T07:04:29.721Z,0.55
2022-09-17T07:06:58.131Z,0.57
2022-09-17T07:09:26.526Z,0.80
2022-09-17T07:11:54.944Z,0.40
2022-09-17T07:14:24.777Z,0.70
2022-09-17T07:16:54.403Z,0.57
2022-09-17T07:19:22.872Z,0.50
2022-09-17T07:21:52.619Z,0.60
2022-09-17T07:24:21.017Z,0.65
2022-09-17T07:26:49.434Z,0.60
2022-09-17T07:29:17.828Z,0.60
2022-09-17T07:31:46.315Z,0.60
2022-09-17T07:34:14.927Z,0.60
2022-09-17T07:36:45.410Z,0.60
2022-09-17T07:39:15.337Z,0.50
2022-09-17T07:41:43.755Z,0.50
2022-09-17T07:44:12.164Z,0.70
2022-09-17T07:46:40.628Z,0.70
2022-09-17T07:49:09.069Z,0.80
2022-09-17T07:51:37.490Z,1.13
2022-09-17T07:54:07.185Z,0.70
2022-09-17T07:56:36.959Z,0.68
2022-09-17T07:59:05.710Z,0.50
2022-09-17T08:01:36.628Z,0.55
2022-09-17T08:04:05.922Z,0.60
2022-09-17T08:06:38.114Z,0.77
2022-09-17T08:09:07.126Z,0.60
2022-09-17T08:11:55.921Z,0.55
2022-09-17T08:14:29.450Z,0.55
2022-09-17T08:16:58.461Z,0.50
2022-09-17T08:19:27.013Z,0.50
2022-09-17T08:21:55.410Z,0.70
2022-09-17T08:24:23.851Z,0.57
2022-09-17T08:26:53.706Z,0.70
2022-09-17T08:29:22.141Z,0.65
2022-09-17T08:31:50.662Z,0.65
2022-09-17T08:34:19.143Z,0.73
2022-09-17T08:36:47.567Z,0.70
2022-09-17T08:39:16.294Z,1.20
2022-09-17T08:41:50.422Z,0.80
2022-09-17T08:44:26.237Z,0.63
2022-09-17T08:46:56.443Z,0.60
2022-09-17T08:49:32.293Z,0.90
2022-09-17T08:52:19.521Z,0.85
2022-09-17T08:54:51.275Z,0.80
2022-09-17T08:57:22.974Z,0.73
2022-09-17T08:59:57.265Z,0.75
2022-09-17T09:02:30.437Z,0.70
2022-09-17T09:05:03.490Z,0.70
2022-09-17T09:07:33.381Z,0.70
2022-09-17T09:10:07.631Z,0.70
2022-09-17T09:12:37.557Z,0.60
2022-09-17T09:15:10.057Z,0.52
2022-09-17T09:17:40.868Z,0.68
2022-09-17T09:20:14.216Z,0.60
2022-09-17T09:22:47.682Z,0.70
2022-09-17T09:25:24.274Z,1.05
2022-09-17T09:27:58.640Z,0.68
2022-09-17T09:30:31.209Z,0.52
2022-09-17T09:33:00.590Z,0.60
2022-09-17T09:35:30.542Z,0.75
2022-09-17T09:38:01.917Z,0.65
2022-09-17T09:40:36.616Z,0.63
2022-09-17T09:43:06.550Z,0.90
2022-09-17T09:45:44.016Z,0.88
2022-09-17T09:48:16.780Z,0.80
2022-09-17T09:51:05.810Z,0.77
2022-09-17T09:53:41.928Z,0.80
2022-09-17T09:56:24.169Z,0.63
2022-09-17T09:58:52.544Z,0.73
2022-09-17T10:01:22.918Z,0.60
2022-09-17T10:03:52.187Z,0.70
2022-09-17T10:06:20.837Z,0.60
2022-09-17T10:09:04.124Z,0.70
2022-09-17T10:11:33.684Z,0.52
2022-09-17T10:14:16.164Z,0.60
2022-09-17T10:16:45.924Z,0.70
2022-09-17T10:19:16.794Z,0.60
2022-09-17T10:21:45.409Z,0.60
2022-09-17T10:24:21.472Z,0.80
2022-09-17T10:26:49.936Z,0.50
2022-09-17T10:29:20.005Z,0.90
2022-09-17T10:31:50.966Z,0.60
2022-09-17T10:34:22.988Z,0.70
2022-09-17T10:36:51.436Z,0.57
2022-09-17T10:39:20.964Z,0.60
2022-09-17T10:41:55.745Z,0.70
2022-09-17T10:44:25.097Z,0.77
2022-09-17T10:46:55.976Z,0.70
2022-09-17T10:49:33.744Z,0.80
2022-09-17T10:52:08.988Z,0.80
2022-09-17T10:54:53.611Z,0.68
2022-09-17T10:57:26.121Z,0.60
2022-09-17T11:00:10.317Z,0.50
2022-09-17T11:02:57.321Z,0.80
2022-09-17T11:05:36.239Z,0.80
2022-09-17T11:08:07.835Z,0.60
2022-09-17T11:10:38.810Z,0.75
2022-09-17T11:13:13.161Z,0.73
2022-09-17T11:15:52.185Z,0.65
2022-09-17T11:18:38.968Z,0.55
2022-09-17T11:21:18.558Z,0.60
2022-09-17T11:24:02.649Z,0.63
2022-09-17T11:26:34.577Z,0.70
2022-09-17T11:29:09.058Z,0.63
2022-09-17T11:31:39.498Z,0.77
2022-09-17T11:34:20.412Z,0.65
2022-09-17T11:36:52.669Z,0.50
2022-09-17T11:39:24.557Z,0.70
2022-09-17T11:41:53.415Z,0.80
2022-09-17T11:44:25.707Z,0.90
2022-09-17T11:46:55.557Z,0.70
2022-09-17T11:49:28.445Z,0.80
2022-09-17T11:51:59.912Z,0.57
2022-09-17T11:54:30.920Z,0.68
2022-09-17T11:57:02.405Z,0.70
2022-09-17T11:59:35.704Z,0.50
2022-09-17T12:02:06.867Z,0.77
2022-09-17T12:04:40.945Z,0.70
2022-09-17T12:07:16.246Z,0.70
2022-09-17T12:09:50.756Z,0.70
2022-09-17T12:12:44.965Z,0.70
2022-09-17T12:15:15.445Z,0.80
2022-09-17T12:17:46.549Z,0.60
2022-09-17T12:20:21.574Z,0.70
2022-09-17T12:22:52.525Z,0.57
2022-09-17T12:25:21.863Z,0.70
2022-09-17T12:27:54.472Z,0.70
2022-09-17T12:30:26.208Z,0.60
2022-09-17T12:33:15.789Z,0.68
2022-09-17T12:36:06.482Z,0.60
2022-09-17T12:38:46.628Z,0.60
2022-09-17T12:41:17.701Z,0.70
2022-09-17T12:43:52.384Z,0.60
2022-09-17T12:46:25.954Z,0.63
2022-09-17T12:49:09.245Z,0.68
2022-09-17T12:51:52.033Z,0.70
2022-09-17T12:54:26.050Z,0.70
2022-09-17T12:56:59.628Z,0.63
2022-09-17T12:59:31.508Z,0.60
2022-09-17T13:02:01.717Z,0.55
2022-09-17T13:05:07.294Z,0.70
2022-09-17T13:07:51.470Z,0.55
2022-09-17T13:10:27.209Z,0.60
2022-09-17T13:12:58.152Z,0.52
2022-09-17T13:15:35.912Z,0.70
2022-09-17T13:18:23.742Z,0.50
2022-09-17T13:21:03.178Z,0.57
2022-09-17T13:23:34.180Z,0.80
2022-09-17T13:26:06.731Z,0.80
2022-09-17T13:28:41.149Z,0.80
2022-09-17T13:31:12.759Z,1.65
2022-09-17T13:33:51.217Z,0.88
2022-09-17T13:36:38.182Z,0.90
2022-09-17T13:39:07.776Z,0.70
2022-09-17T13:41:39.064Z,0.50
2022-09-17T13:44:08.696Z,0.80
2022-09-17T13:46:38.328Z,0.70
2022-09-17T13:49:08.513Z,0.77
2022-09-17T13:51:45.996Z,0.77
2022-09-17T13:54:15.545Z,0.70
2022-09-17T13:56:47.045Z,0.80
2022-09-17T13:59:17.512Z,0.70
2022-09-17T14:02:06.928Z,0.80
2022-09-17T14:04:36.648Z,1.35
2022-09-17T14:07:28.936Z,0.80
2022-09-17T14:09:58.358Z,0.70
2022-09-17T14:12:47.624Z,0.70
2022-09-17T14:15:55.759Z,0.80
2022-09-17T14:18:37.668Z,0.70
2022-09-17T14:21:15.609Z,0.77
2022-09-17T14:23:45.344Z,0.90
2022-09-17T14:26:16.463Z,1.20
2022-09-17T14:28:49.646Z,0.65
2022-09-17T14:31:20.645Z,0.90
2022-09-17T14:33:49.804Z,0.80
2022-09-17T14:36:20.093Z,1.02
2022-09-17T14:38:49.464Z,0.80
2022-09-17T14:41:21.193Z,0.80
2022-09-17T14:43:51.382Z,0.85
2022-09-17T14:46:22.362Z,0.80
2022-09-17T14:48:51.037Z,1.05
2022-09-17T14:51:37.326Z,1.10
2022-09-17T14:54:12.081Z,1.05
2022-09-17T14:56:45.598Z,1.20
2022-09-17T14:59:21.151Z,0.90
2022-09-17T15:01:51.123Z,0.98
2022-09-17T15:04:23.813Z,0.93
2022-09-17T15:06:52.246Z,0.93
2022-09-17T15:09:21.557Z,1.17
2022-09-17T15:11:50.255Z,1.17
2022-09-17T15:14:20.758Z,1.00
2022-09-17T15:16:51.915Z,0.88
2022-09-17T15:19:24.193Z,0.80
2022-09-17T15:21:55.103Z,1.00
2022-09-17T15:24:34.737Z,0.80
2022-09-17T15:27:06.446Z,0.70
2022-09-17T15:29:35.716Z,0.80
2022-09-17T15:32:07.042Z,1.20
2022-09-17T15:34:35.420Z,1.15
2022-09-17T15:37:07.804Z,0.93
2022-09-17T15:39:41.003Z,1.10
2022-09-17T15:42:19.164Z,1.00
2022-09-17T15:44:47.561Z,1.00
2022-09-17T15:47:34.369Z,1.10
2022-09-17T15:50:09.055Z,1.10
2022-09-17T15:52:37.589Z,1.15
2022-09-17T15:55:06.324Z,1.20
2022-09-17T15:57:34.926Z,1.80
2022-09-17T16:00:13.770Z,11.88
2022-09-17T16:02:42.420Z,2.70
2022-09-17T16:05:41.013Z,2.58
2022-09-17T16:08:27.100Z,4.15
2022-09-17T16:10:56.954Z,10.68
2022-09-17T16:13:28.550Z,1.33
2022-09-17T16:15:57.646Z,7.25
2022-09-17T16:18:26.147Z,11.32
2022-09-17T16:20:54.542Z,3.28
2022-09-17T16:23:22.957Z,4.18
2022-09-17T16:25:51.694Z,8.48
2022-09-17T16:28:22.038Z,8.45
2022-09-17T16:30:50.832Z,6.72
2022-09-17T16:33:19.964Z,5.78
2022-09-17T16:35:48.421Z,7.75
2022-09-17T16:38:16.829Z,2.35
2022-09-17T16:40:47.187Z,2.40
2022-09-17T16:43:16.034Z,2.30
2022-09-17T16:45:46.160Z,12.98
2022-09-17T16:48:14.598Z,6.18
2022-09-17T16:50:43.082Z,3.25
2022-09-17T16:53:11.536Z,5.53
2022-09-17T16:55:40.521Z,7.38
2022-09-17T16:58:08.912Z,1.80
2022-09-17T17:00:38.184Z,6.28
2022-09-17T17:03:08.743Z,2.28
2022-09-17T17:05:38.649Z,3.40
2022-09-17T17:08:07.275Z,5.38
2022-09-17T17:10:36.161Z,4.70
2022-09-17T17:13:04.608Z,3.40
2022-09-17T17:15:32.995Z,2.55
2022-09-17T17:18:01.384Z,3.20
2022-09-17T17:20:32.106Z,3.50
2022-09-17T17:23:00.528Z,3.97
2022-09-17T17:25:29.031Z,2.85
2022-09-17T17:27:57.437Z,2.28
2022-09-17T17:30:25.921Z,2.45
2022-09-17T17:32:54.774Z,2.10
2022-09-17T17:35:23.671Z,5.30
2022-09-17T17:37:53.478Z,2.10
2022-09-17T17:40:21.972Z,3.40
2022-09-17T17:42:53.512Z,3.17
2022-09-17T17:45:22.076Z,4.97
2022-09-17T17:47:50.606Z,2.50
2022-09-17T17:50:19.347Z,3.55
2022-09-17T17:52:48.688Z,3.40
2022-09-17T17:55:18.685Z,2.00
2022-09-17T17:57:47.097Z,2.28
2022-09-17T18:00:16.889Z,2.28
2022-09-17T18:02:45.440Z,5.18
2022-09-17T18:05:14.272Z,2.30
2022-09-17T18:07:42.677Z,2.08
2022-09-17T18:10:11.841Z,2.50
2022-09-17T18:12:41.759Z,2.30
2022-09-17T18:15:10.379Z,1.98
2022-09-17T18:17:38.793Z,2.25
2022-09-17T18:20:09.450Z,3.20
2022-09-17T18:22:37.881Z,6.35
2022-09-17T18:25:06.669Z,2.53
2022-09-17T18:27:35.150Z,2.30
2022-09-17T18:30:05.128Z,1.80
2022-09-17T18:32:33.514Z,1.85
2022-09-17T18:35:02.080Z,1.92
2022-09-17T18:37:30.465Z,1.20
2022-09-17T18:39:59.652Z,1.52
2022-09-17T18:42:28.121Z,2.30
2022-09-17T18:44:56.549Z,1.70
2022-09-17T18:47:26.409Z,2.70
2022-09-17T18:49:54.893Z,1.67
2022-09-17T18:52:23.341Z,1.33
2022-09-17T18:54:51.772Z,1.60
2022-09-17T18:57:20.161Z,1.80
2022-09-17T18:59:48.772Z,1.30
2022-09-17T19:02:17.255Z,2.67
2022-09-17T19:04:47.093Z,1.90
2022-09-17T19:07:15.576Z,1.33
2022-09-17T19:09:43.959Z,2.85
2022-09-17T19:12:12.339Z,1.88
2022-09-17T19:14:40.754Z,1.77
2022-09-17T19:17:09.309Z,2.25
2022-09-17T19:19:37.808Z,2.00
2022-09-17T19:22:08.240Z,1.80
2022-09-17T19:24:36.891Z,2.25
2022-09-17T19:27:07.096Z,1.58
2022-09-17T19:29:35.551Z,1.45
2022-09-17T19:32:04.188Z,1.30
2022-09-17T19:34:32.581Z,1.40
2022-09-17T19:37:00.988Z,3.00
2022-09-17T19:39:30.760Z,1.30
2022-09-17T19:41:59.230Z,2.45
2022-09-17T19:44:27.724Z,1.60
2022-09-17T19:46:56.319Z,1.10
2022-09-17T19:49:24.864Z,1.30
2022-09-17T19:51:53.279Z,1.55
2022-09-17T19:54:21.741Z,1.75
2022-09-17T19:56:51.532Z,1.92
2022-09-17T19:59:19.962Z,1.63
2022-09-17T20:01:49.797Z,2.55
2022-09-17T20:04:18.437Z,1.48
2022-09-17T20:06:46.836Z,1.58
2022-09-17T20:09:15.232Z,1.40
2022-09-17T20:11:43.677Z,1.38
2022-09-17T20:14:13.747Z,1.67
2022-09-17T20:16:43.500Z,1.60
2022-09-17T20:19:15.244Z,1.50
2022-09-17T20:21:43.769Z,1.80
2022-09-17T20:24:12.346Z,1.52
2022-09-17T20:26:40.743Z,2.63
2022-09-17T20:29:09.172Z,1.45
2022-09-17T20:31:39.029Z,1.90
2022-09-17T20:34:07.568Z,2.13
2022-09-17T20:36:36.838Z,1.40
2022-09-17T20:39:18.202Z,1.80
2022-09-17T20:41:49.767Z,1.58
2022-09-17T20:44:18.701Z,2.30
2022-09-17T20:46:48.530Z,1.50
2022-09-17T20:49:17.010Z,1.58
2022-09-17T20:51:45.401Z,1.67
2022-09-17T20:54:13.852Z,5.03
2022-09-17T20:56:42.473Z,2.55
2022-09-17T20:59:15.206Z,2.20
2022-09-17T21:01:45.171Z,2.33
2022-09-17T21:04:16.478Z,1.40
2022-09-17T21:06:45.490Z,1.40
2022-09-17T21:09:16.749Z,1.30
2022-09-17T21:11:45.717Z,1.10
2022-09-17T21:14:15.677Z,1.35
2022-09-17T21:16:44.270Z,1.70
2022-09-17T21:19:13.267Z,1.40
2022-09-17T21:21:43.025Z,1.42
2022-09-17T21:24:11.566Z,1.40
2022-09-17T21:26:39.997Z,2.40
2022-09-17T21:29:08.487Z,4.40
2022-09-17T21:31:38.193Z,9.00
2022-09-17T21:34:07.820Z,12.07
2022-09-17T21:36:37.336Z,6.35
2022-09-17T21:39:08.172Z,2.53
2022-09-17T21:41:41.448Z,3.15
2022-09-17T21:44:10.656Z,4.40
2022-09-17T21:46:39.173Z,4.10
2022-09-17T21:49:08.125Z,2.60
2022-09-17T21:51:37.355Z,2.00
2022-09-17T21:54:08.518Z,1.48
2022-09-17T21:56:37.499Z,1.40
2022-09-17T21:59:07.058Z,1.40
2022-09-17T22:01:40.579Z,1.40
2022-09-17T22:04:09.452Z,1.25
2022-09-17T22:06:38.243Z,1.27
2022-09-17T22:09:08.682Z,1.13
2022-09-17T22:11:38.016Z,1.25
2022-09-17T22:14:09.196Z,1.08
2022-09-17T22:16:39.023Z,1.30
2022-09-17T22:19:07.929Z,1.60
2022-09-17T22:21:37.313Z,1.40
2022-09-17T22:24:06.305Z,1.60
2022-09-17T22:26:37.288Z,1.25
2022-09-17T22:29:06.287Z,1.50
2022-09-17T22:31:34.754Z,1.38
2022-09-17T22:34:03.889Z,1.30
2022-09-17T22:36:32.292Z,1.15
2022-09-17T22:39:01.057Z,1.13
2022-09-17T22:41:30.223Z,1.40
2022-09-17T22:44:01.079Z,1.17
2022-09-17T22:46:30.321Z,1.02
2022-09-17T22:48:59.034Z,1.10
2022-09-17T22:51:28.146Z,0.90
2022-09-17T22:53:56.898Z,1.00
2022-09-17T22:56:25.497Z,0.90
2022-09-17T22:58:53.881Z,1.00
2022-09-17T23:01:24.576Z,0.88
2022-09-17T23:03:53.921Z,1.10
2022-09-17T23:06:24.897Z,0.90
2022-09-17T23:08:53.571Z,0.90
2022-09-17T23:11:23.442Z,0.80
2022-09-17T23:13:52.557Z,1.10
2022-09-17T23:16:21.314Z,0.90
2022-09-17T23:18:51.225Z,0.88
2022-09-17T23:21:20.519Z,0.85
2022-09-17T23:23:50.098Z,0.80
2022-09-17T23:26:19.225Z,1.00
2022-09-17T23:28:47.872Z,0.80
2022-09-17T23:31:17.028Z,1.25
2022-09-17T23:33:45.505Z,1.00
2022-09-17T23:36:16.301Z,1.20
2022-09-17T23:38:45.644Z,1.02
2022-09-17T23:41:14.890Z,0.98
2022-09-17T23:43:43.551Z,0.90
2022-09-17T23:46:12.232Z,0.80
2022-09-17T23:48:40.661Z,1.00
2022-09-17T23:51:09.078Z,0.98
2022-09-17T23:53:39.172Z,0.90
2022-09-17T23:56:12.139Z,0.85
2022-09-17T23:58:40.937Z,1.00
